Latest Weather Observations for Lake Julius

IDQ60801

Issued at 5:42 pm EST Wednesday 25 November 2020 (issued every 10 minutes, with the page automatically refreshed every 10 minutes)

About weather observations | Map of weather stations | Latest weather observations for QLD | Other Formats
Station Details ID: 029181 Name: LAKE JULIUS AWS Lat: -20.12 Lon: 139.73 Height: 237.0 m
Data from the previous 72 hours. | See also: Recent months at Lake Julius
Date/Time
EST
Temp
°C
App
Temp
°C
Dew
Point
°C
Rel
Hum
%
Delta-T
°C
Wind Press
QNH
hPa
Press
MSL
hPa
Rain since
9am
mm
Dir  Spd
km/h
Gust
km/h
Spd
kts
Gust
kts
25/05:30pm 41.6 37.1 2.3 9 21.1 SSW 15 24 8 13 - - 0.0
25/05:00pm 41.8 37.1 0.8 8 21.6 SSW 15 30 8 16 - - 0.0
25/04:30pm 41.7 37.6 2.4 9 21.1 SSW 13 24 7 13 - - 0.0
25/04:00pm 42.9 40.3 3.3 9 21.7 WSW 6 17 3 9 - - 0.0
25/03:30pm 40.7 38.1 3.1 10 20.3 NE 6 11 3 6 - - 0.0
25/03:00pm 42.0 38.0 2.6 9 21.3 S 13 24 7 13 - - 0.0
25/02:30pm 41.7 37.9 3.9 10 20.8 S 13 26 7 14 - - 0.0
25/02:00pm 41.3 37.4 3.6 10 20.6 SSW 13 26 7 14 - - 0.0
25/01:30pm 41.0 38.5 4.7 11 20.1 NW 7 17 4 9 - - 0.0
25/01:00pm 41.1 38.0 3.4 10 20.5 SW 9 17 5 9 - - 0.0
25/12:30pm 40.8 38.3 4.6 11 20.0 SE 7 13 4 7 - - 0.0
25/12:00pm 41.0 38.8 6.0 12 19.8 S 7 15 4 8 - - 0.0
25/11:30am 40.5 37.0 5.6 12 19.6 S 13 28 7 15 - - 0.0
25/11:00am 39.8 37.4 5.1 12 19.2 E 7 15 4 8 - - 0.0
25/10:30am 38.7 36.0 5.4 13 18.4 ESE 9 19 5 10 - - 0.0
25/10:00am 39.2 36.9 5.7 13 18.7 SE 7 15 4 8 - - 0.0
25/09:30am 37.0 34.2 5.1 14 17.4 SSW 9 19 5 10 - - 0.0
25/09:00am 35.5 32.6 4.9 15 16.6 SSW 9 15 5 8 - - -
25/08:30am 34.7 32.3 5.2 16 16.0 S 7 17 4 9 - - -
25/08:00am 33.6 31.3 7.6 20 14.5 SSW 9 13 5 7 - - -
25/07:30am 32.2 30.6 7.8 22 13.6 SSW 6 7 3 4 - - -
25/07:00am 29.9 29.8 10.9 31 11.0 SW 2 7 1 4 - - -
25/06:30am 28.5 27.5 8.7 29 11.0 SW 4 7 2 4 - - -
25/06:00am 29.3 29.1 8.9 28 11.4 CALM 0 0 0 0 - - -
25/05:30am 29.8 29.3 9.3 28 11.6 S 2 4 1 2 - - -
25/05:00am 31.1 29.7 8.8 25 12.6 S 6 7 3 4 - - -
25/04:30am 31.5 30.0 9.1 25 12.7 S 7 9 4 5 - - -
25/04:00am 31.6 30.1 8.6 24 12.9 SSE 6 13 3 7 - - -
25/03:30am 31.3 29.8 8.3 24 12.9 SSE 6 9 3 5 - - -
25/03:00am 31.8 31.1 8.7 24 13.0 SSW 2 6 1 3 - - 0.0
25/02:30am 33.2 32.9 8.6 22 13.9 CALM 0 0 0 0 - - -
25/02:00am 33.7 32.2 8.3 21 14.4 S 6 13 3 7 - - -
25/01:30am 34.5 31.6 8.3 20 14.9 S 13 20 7 11 - - -
25/01:00am 34.9 31.8 7.1 18 15.5 S 13 20 7 11 - - -
25/12:30am 35.3 32.0 6.6 17 15.9 S 13 24 7 13 - - -
25/12:00am 35.3 33.4 7.4 18 15.7 SSW 7 11 4 6 - - -
 
Date/Time
EST
Temp
°C
App
Temp
°C
Dew
Point
°C
Rel
Hum
%
Delta-T
°C
Wind Press
QNH
hPa
Press
MSL
hPa
Rain since
9am
mm
Dir  Spd
km/h
Gust
km/h
Spd
kts
Gust
kts
24/11:30pm 35.5 33.4 5.8 16 16.3 SSW 6 9 3 5 - - -
24/11:00pm 35.7 33.1 6.0 16 16.4 SSW 9 11 5 6 - - -
24/10:30pm 36.0 33.2 7.1 17 16.2 S 11 19 6 10 - - -
24/10:00pm 35.9 34.3 8.7 19 15.6 SSW 7 9 4 5 - - -
24/09:30pm 36.5 34.6 7.5 17 16.4 SSW 7 9 4 5 - - -
24/09:00pm 37.4 35.2 6.4 15 17.3 S 7 13 4 7 - - -
24/08:30pm 37.8 35.1 5.7 14 17.8 S 9 15 5 8 - - -
24/08:00pm 38.5 34.2 5.2 13 18.4 S 17 28 9 15 - - -
24/07:30pm 38.9 - 1.8 10 19.5 - - - - - - - -
24/07:00pm 39.4 35.4 0.7 9 20.0 SSE 11 17 6 9 - - 0.0
24/06:30pm 39.7 36.1 0.9 9 20.2 SSE 9 15 5 8 - - 0.0
24/06:00pm 40.0 36.1 1.1 9 20.3 S 11 19 6 10 - - 0.0
24/05:30pm 40.2 35.9 1.3 9 20.4 S 13 20 7 11 - - 0.0
24/05:00pm 40.5 36.7 1.5 9 20.6 SSE 11 22 6 12 - - 0.0
24/04:30pm 40.6 36.0 1.6 9 20.6 S 15 28 8 15 - - 0.0
24/04:00pm 41.4 37.8 0.5 8 21.4 SSE 9 17 5 9 - - 0.0
24/03:30pm 42.2 38.7 1.1 8 21.7 SSE 9 20 5 11 - - 0.0
24/03:00pm 42.1 39.1 1.1 8 21.7 E 6 11 3 6 - - 0.0
24/02:30pm 41.2 37.2 0.4 8 21.3 SSW 11 20 6 11 - - 0.0
24/02:00pm 41.5 37.1 0.6 8 21.4 S 13 22 7 12 - - 0.0
24/01:30pm 41.1 37.7 2.0 9 20.8 WSW 9 15 5 8 - - 0.0
24/01:00pm 42.3 39.1 2.8 9 21.4 S 9 15 5 8 - - 0.0
24/12:30pm 40.4 36.5 1.4 9 20.5 S 11 20 6 11 - - 0.0
24/12:00pm 40.8 37.2 3.2 10 20.4 S 11 24 6 13 - - 0.0
24/11:30am 39.2 36.4 3.4 11 19.3 SSW 7 13 4 7 - - 0.0
24/11:00am 40.2 37.5 5.4 12 19.4 SW 9 17 5 9 - - 0.0
24/10:30am 39.4 36.8 5.9 13 18.8 SSW 9 19 5 10 - - 0.0
24/10:00am 37.4 33.3 4.4 13 17.9 SSW 15 20 8 11 - - 0.0
24/09:30am 36.6 33.4 8.4 18 16.2 SW 15 22 8 12 - - 0.0
24/09:00am 35.4 33.3 12.4 25 13.9 SSW 15 28 8 15 - - 0.0
24/08:30am 34.8 35.2 15.2 31 12.3 S 7 13 4 7 - - 0.0
24/08:00am 32.5 33.5 16.3 37 10.3 SSW 6 11 3 6 - - 0.0
24/07:30am 30.4 31.0 15.3 40 9.4 SSW 6 9 3 5 - - 0.0
24/07:00am 29.0 28.8 13.6 38 9.3 SSW 7 9 4 5 - - 0.0
24/06:30am 27.4 26.1 13.7 43 8.2 SW 13 24 7 13 - - 0.0
24/06:00am 26.0 25.7 13.2 45 7.6 SSW 7 7 4 4 - - 0.0
24/05:30am 26.3 26.1 13.1 44 7.8 SSW 6 7 3 4 - - 0.0
24/05:00am 25.9 24.7 9.7 36 9.0 SSW 6 9 3 5 - - 0.0
24/04:30am 26.1 25.8 8.6 33 9.6 CALM 0 0 0 0 - - 0.0
24/04:00am 26.2 25.9 8.7 33 9.6 CALM 0 0 0 0 - - 0.0
24/03:30am 26.5 26.1 12.9 43 8.0 SSW 7 9 4 5 - - 0.0
24/03:00am 25.9 27.0 13.4 46 7.4 CALM 0 2 0 1 - - 0.0
24/02:30am 26.8 26.5 11.3 38 8.9 SSW 4 6 2 3 - - 0.0
24/02:00am 26.2 26.8 13.0 44 7.8 SSW 2 2 1 1 - - 0.0
24/01:30am 26.9 27.4 14.0 45 7.7 SSW 4 6 2 3 - - 0.0
24/01:00am 27.4 27.8 13.7 43 8.2 SSW 4 6 2 3 - - 0.0
24/12:30am 27.5 27.8 12.3 39 8.9 SSW 2 4 1 2 - - 0.0
24/12:00am 28.1 27.7 11.2 35 9.8 SSW 4 4 2 2 - - 0.0
 
Date/Time
EST
Temp
°C
App
Temp
°C
Dew
Point
°C
Rel
Hum
%
Delta-T
°C
Wind Press
QNH
hPa
Press
MSL
hPa
Rain since
9am
mm
Dir  Spd
km/h
Gust
km/h
Spd
kts
Gust
kts
23/11:30pm 28.8 29.1 13.5 39 9.2 SSW 4 6 2 3 - - 0.0
23/11:00pm 29.6 30.7 13.4 37 9.7 CALM 0 0 0 0 - - 0.0
23/10:30pm 30.2 29.3 6.1 22 12.9 CALM 0 0 0 0 - - 0.0
23/10:00pm 30.9 30.1 6.7 22 13.2 CALM 0 0 0 0 - - 0.0
23/09:30pm 31.5 30.4 5.1 19 14.0 CALM 0 0 0 0 - - 0.0
23/09:00pm 32.5 31.2 4.3 17 14.9 CALM 0 0 0 0 - - 0.0
23/08:30pm 33.7 32.3 3.5 15 15.8 CALM 0 0 0 0 - - 0.0
23/08:00pm 35.5 32.8 2.9 13 17.1 ENE 6 7 3 4 - - 0.0
23/07:30pm 36.1 33.1 2.2 12 17.6 ENE 7 11 4 6 - - 0.0
23/07:00pm 36.8 33.9 2.8 12 17.9 ENE 7 13 4 7 - - 0.0
23/06:30pm 37.4 34.0 2.0 11 18.5 ESE 9 15 5 8 - - 0.0
23/06:00pm 37.9 35.0 2.4 11 18.7 ESE 7 13 4 7 - - 0.0
23/05:30pm 38.5 36.4 1.5 10 19.3 SSE 2 7 1 4 - - 0.0
23/05:00pm 38.5 34.7 1.5 10 19.3 SE 11 19 6 10 - - 0.0
23/04:30pm 39.4 36.1 2.2 10 19.7 SSE 9 22 5 12 - - 0.0
23/04:00pm 39.0 35.4 3.2 11 19.2 NE 11 17 6 9 - - 0.0
23/03:30pm 38.3 35.2 1.3 10 19.2 ESE 7 15 4 8 - - 0.0
23/03:00pm 38.9 35.9 1.8 10 19.5 SSE 7 22 4 12 - - 0.0
23/02:30pm 37.8 34.8 2.3 11 18.7 E 7 17 4 9 - - 0.0
23/02:00pm 39.3 35.8 3.4 11 19.4 SSE 11 28 6 15 - - 0.0
23/01:30pm 38.1 35.0 3.8 12 18.5 S 9 17 5 9 - - 0.0
23/01:00pm 38.3 36.3 6.1 14 18.0 NNW 6 15 3 8 - - 0.0
23/12:30pm 37.0 34.2 5.1 14 17.4 SE 9 20 5 11 - - 0.0
23/12:00pm 35.7 33.5 9.3 20 15.3 ENE 11 28 6 15 - - 0.0
23/11:30am 34.9 32.1 10.0 22 14.5 NE 15 24 8 13 - - 0.0
23/11:00am 33.6 30.9 10.2 24 13.6 NE 15 24 8 13 - - 0.0
23/10:30am 34.0 31.6 9.9 23 14.0 NE 13 22 7 12 - - 0.0
23/10:00am 32.8 29.3 8.9 23 13.6 ENE 17 26 9 14 - - 0.0
23/09:30am 32.1 28.7 7.7 22 13.6 ENE 15 24 8 13 - - 0.0
23/09:00am 31.9 29.8 8.2 23 13.3 E 9 15 5 8 - - 0.0
23/08:30am 31.4 28.6 7.1 22 13.3 ESE 11 20 6 11 - - 0.0
23/08:00am 29.7 25.9 5.7 22 12.7 ESE 15 20 8 11 - - 0.0
23/07:30am 28.8 26.1 5.6 23 12.2 ESE 9 15 5 8 - - 0.0
23/07:00am 25.6 24.6 9.0 35 9.1 ENE 4 6 2 3 - - 0.0
23/06:30am 24.1 23.8 10.0 41 7.8 NNE 2 6 1 3 - - 0.0
23/06:00am 23.9 24.3 11.3 45 7.1 CALM 0 0 0 0 - - 0.0
23/05:30am 24.8 25.1 13.4 49 6.7 SW 4 6 2 3 - - 0.0
23/05:00am 25.1 25.4 13.3 48 7.0 SW 4 6 2 3 - - 0.0
23/04:30am 25.3 26.1 14.7 51 6.4 SW 4 6 2 3 - - 0.0
23/04:00am 24.9 25.0 12.8 47 7.1 SW 4 6 2 3 - - 0.0
23/03:30am 24.9 25.4 11.5 43 7.7 CALM 0 0 0 0 - - 0.0
23/03:00am 25.7 26.9 13.9 48 7.0 CALM 0 0 0 0 - - 0.0
23/02:30am 25.9 26.3 11.3 40 8.4 CALM 0 2 0 1 - - 0.0
23/02:00am 26.7 28.6 15.7 51 6.8 CALM 0 2 0 1 - - 0.0
23/01:30am 26.8 27.9 13.5 44 7.9 CALM 0 4 0 2 - - 0.0
23/01:00am 27.3 27.1 12.9 41 8.5 SSW 6 7 3 4 - - 0.0
23/12:30am 27.5 28.1 13.1 41 8.5 SW 2 6 1 3 - - 0.0
23/12:00am 28.4 28.7 15.0 44 8.2 SSW 7 9 4 5 - - 0.0
 
Date/Time
EST
Temp
°C
App
Temp
°C
Dew
Point
°C
Rel
Hum
%
Delta-T
°C
Wind Press
QNH
hPa
Press
MSL
hPa
Rain since
9am
mm
Dir  Spd
km/h
Gust
km/h
Spd
kts
Gust
kts
22/11:30pm 28.7 29.0 10.8 33 10.3 CALM 0 0 0 0 - - 0.0
22/11:00pm 29.3 30.0 12.3 35 10.0 CALM 0 0 0 0 - - 0.0
22/10:30pm 29.4 28.9 9.5 29 11.2 SW 2 6 1 3 - - 0.0
22/10:00pm 30.7 30.0 10.1 28 11.8 SSW 4 4 2 2 - - 0.0
22/09:30pm 31.3 31.4 10.1 27 12.2 CALM 0 0 0 0 - - 0.0
22/09:00pm 31.8 31.2 7.5 22 13.4 CALM 0 0 0 0 - - 0.0
22/08:30pm 32.9 32.2 7.0 20 14.3 CALM 0 0 0 0 - - 0.0
22/08:00pm 33.8 32.7 7.0 19 14.9 ENE 2 4 1 2 - - 0.0
22/07:30pm 34.7 32.7 6.1 17 15.7 NE 6 7 3 4 - - 0.0
22/07:00pm 35.4 32.7 5.8 16 16.2 ENE 9 15 5 8 - - 0.0
22/06:30pm 36.0 33.2 5.3 15 16.8 E 9 19 5 10 - - 0.0
22/06:00pm 36.7 34.4 5.9 15 17.0 ESE 7 19 4 10 - - 0.0

Other formats

Comma delimited format used in spreadsheet applications
http://www.bom.gov.au/fwo/IDQ60801/IDQ60801.94348.axf

JavaScript Object Notation format (JSON) in row-major order
http://www.bom.gov.au/fwo/IDQ60801/IDQ60801.94348.json

Data quality

Most of these data are generated automatically and are frequently updated. Quality checks on data are not normally performed. It is possible for incorrect values to appear. Refer to information at About Latest Weather Observations and please check the disclaimer before using these data.